sensor_id;sensor_type;location;lat;lon;timestamp;pressure;altitude;pressure_sealevel;temperature;humidity
17072;BME280;7731;50.720;6.912;2023-04-01T00:01:21;98021.78;;;10.00;100.00
17072;BME280;7731;50.720;6.912;2023-04-01T00:04:02;98016.84;;;9.88;100.00
17072;BME280;7731;50.720;6.912;2023-04-01T00:06:41;98017.84;;;9.75;100.00
17072;BME280;7731;50.720;6.912;2023-04-01T00:09:22;98009.59;;;9.93;100.00
17072;BME280;7731;50.720;6.912;2023-04-01T00:12:04;98015.03;;;9.78;100.00
17072;BME280;7731;50.720;6.912;2023-04-01T00:14:44;98014.66;;;10.04;100.00
17072;BME280;7731;50.720;6.912;2023-04-01T00:17:24;98009.59;;;9.93;100.00
17072;BME280;7731;50.720;6.912;2023-04-01T00:20:07;98014.78;;;10.02;100.00
17072;BME280;7731;50.720;6.912;2023-04-01T00:22:47;98008.97;;;10.00;100.00
17072;BME280;7731;50.720;6.912;2023-04-01T00:25:27;98007.22;;;10.01;100.00
17072;BME280;7731;50.720;6.912;2023-04-01T00:28:09;98012.81;;;10.06;100.00
17072;BME280;7731;50.720;6.912;2023-04-01T00:30:49;98004.22;;;9.96;100.00
17072;BME280;7731;50.720;6.912;2023-04-01T00:33:28;97999.59;;;9.90;100.00
17072;BME280;7731;50.720;6.912;2023-04-01T00:36:11;98002.56;;;9.95;100.00
17072;BME280;7731;50.720;6.912;2023-04-01T00:38:52;98002.06;;;10.01;100.00
17072;BME280;7731;50.720;6.912;2023-04-01T00:41:31;98004.22;;;9.96;100.00
17072;BME280;7731;50.720;6.912;2023-04-01T00:44:18;97997.69;;;9.92;100.00
17072;BME280;7731;50.720;6.912;2023-04-01T00:46:58;98001.91;;;9.93;100.00
17072;BME280;7731;50.720;6.912;2023-04-01T00:49:41;98003.03;;;10.00;100.00
17072;BME280;7731;50.720;6.912;2023-04-01T00:52:24;97996.34;;;9.88;100.00
17072;BME280;7731;50.720;6.912;2023-04-01T00:55:11;98009.59;;;9.93;100.00
17072;BME280;7731;50.720;6.912;2023-04-01T00:57:55;97994.94;;;9.83;100.00
17072;BME280;7731;50.720;6.912;2023-04-01T01:00:38;97992.00;;;9.88;100.00
17072;BME280;7731;50.720;6.912;2023-04-01T01:03:19;97992.50;;;9.82;100.00
17072;BME280;7731;50.720;6.912;2023-04-01T01:06:24;97985.38;;;9.86;100.00
17072;BME280;7731;50.720;6.912;2023-04-01T01:09:23;97993.56;;;9.79;100.00
17072;BME280;7731;50.720;6.912;2023-04-01T01:12:13;97980.94;;;9.88;100.00
17072;BME280;7731;50.720;6.912;2023-04-01T01:15:02;97990.97;;;9.91;100.00
17072;BME280;7731;50.720;6.912;2023-04-01T01:17:57;97989.31;;;9.90;100.00
17072;BME280;7731;50.720;6.912;2023-04-01T01:21:01;97987.19;;;9.95;100.00
17072;BME280;7731;50.720;6.912;2023-04-01T01:24:22;97986.09;;;9.88;100.00
17072;BME280;7731;50.720;6.912;2023-04-01T01:27:09;97976.31;;;9.81;100.00
17072;BME280;7731;50.720;6.912;2023-04-01T01:30:25;97988.63;;;9.67;100.00
17072;BME280;7731;50.720;6.912;2023-04-01T01:33:47;97987.00;;;9.87;100.00
17072;BME280;7731;50.720;6.912;2023-04-01T01:36:33;97980.97;;;9.76;100.00
17072;BME280;7731;50.720;6.912;2023-04-01T01:39:13;97978.66;;;9.73;100.00
17072;BME280;7731;50.720;6.912;2023-04-01T01:41:55;97979.38;;;9.75;100.00
17072;BME280;7731;50.720;6.912;2023-04-01T01:44:37;97971.69;;;9.75;100.00
17072;BME280;7731;50.720;6.912;2023-04-01T01:47:21;97970.78;;;9.65;100.00
17072;BME280;7731;50.720;6.912;2023-04-01T01:50:05;97981.81;;;9.77;100.00
17072;BME280;7731;50.720;6.912;2023-04-01T01:52:48;97971.69;;;9.75;100.00
17072;BME280;7731;50.720;6.912;2023-04-01T01:55:31;97971.47;;;9.67;100.00
17072;BME280;7731;50.720;6.912;2023-04-01T01:58:19;97980.81;;;9.68;100.00
17072;BME280;7731;50.720;6.912;2023-04-01T02:01:02;97975.00;;;9.66;100.00
17072;BME280;7731;50.720;6.912;2023-04-01T02:03:45;97970.06;;;9.74;100.00
17072;BME280;7731;50.720;6.912;2023-04-01T02:06:29;97974.19;;;9.87;100.00
17072;BME280;7731;50.720;6.912;2023-04-01T02:09:12;97978.91;;;9.70;100.00
17072;BME280;7731;50.720;6.912;2023-04-01T02:11:56;97990.94;;;9.70;100.00
17072;BME280;7731;50.720;6.912;2023-04-01T02:14:43;97971.31;;;9.47;100.00
17072;BME280;7731;50.720;6.912;2023-04-01T02:17:27;97977.63;;;9.43;100.00
17072;BME280;7731;50.720;6.912;2023-04-01T02:20:14;97971.03;;;9.62;100.00
17072;BME280;7731;50.720;6.912;2023-04-01T02:22:57;97974.78;;;9.58;100.00
17072;BME280;7731;50.720;6.912;2023-04-01T02:25:42;97980.41;;;9.52;100.00
17072;BME280;7731;50.720;6.912;2023-04-01T02:28:24;97977.03;;;9.51;100.00
17072;BME280;7731;50.720;6.912;2023-04-01T02:31:06;97978.28;;;9.57;100.00
17072;BME280;7731;50.720;6.912;2023-04-01T02:33:48;97978.06;;;9.60;100.00
17072;BME280;7731;50.720;6.912;2023-04-01T02:36:28;97974.47;;;9.51;100.00
17072;BME280;7731;50.720;6.912;2023-04-01T02:39:08;97983.00;;;9.40;100.00
17072;BME280;7731;50.720;6.912;2023-04-01T02:41:52;97982.19;;;9.40;100.00
17072;BME280;7731;50.720;6.912;2023-04-01T02:44:32;97979.16;;;9.35;100.00
17072;BME280;7731;50.720;6.912;2023-04-01T02:47:11;97986.75;;;9.36;100.00
17072;BME280;7731;50.720;6.912;2023-04-01T03:19:56;97983.13;;;9.27;100.00
17072;BME280;7731;50.720;6.912;2023-04-01T03:22:32;97974.78;;;9.25;100.00
17072;BME280;7731;50.720;6.912;2023-04-01T03:25:03;97969.41;;;9.28;100.00
17072;BME280;7731;50.720;6.912;2023-04-01T03:27:39;97974.53;;;9.28;100.00
17072;BME280;7731;50.720;6.912;2023-04-01T03:30:15;97963.50;;;9.17;100.00
17072;BME280;7731;50.720;6.912;2023-04-01T03:32:51;97967.59;;;9.08;100.00
17072;BME280;7731;50.720;6.912;2023-04-01T03:35:29;97961.84;;;9.27;100.00
17072;BME280;7731;50.720;6.912;2023-04-01T03:38:04;97972.34;;;9.24;100.00
17072;BME280;7731;50.720;6.912;2023-04-01T03:40:42;97972.34;;;9.24;100.00
17072;BME280;7731;50.720;6.912;2023-04-01T03:43:17;97974.44;;;9.19;100.00
17072;BME280;7731;50.720;6.912;2023-04-01T03:45:53;97983.25;;;9.37;100.00
17072;BME280;7731;50.720;6.912;2023-04-01T03:48:34;97980.94;;;9.23;100.00
17072;BME280;7731;50.720;6.912;2023-04-01T03:51:12;97978.41;;;9.11;100.00
17072;BME280;7731;50.720;6.912;2023-04-01T03:53:48;97979.41;;;9.32;100.00
17072;BME280;7731;50.720;6.912;2023-04-01T03:56:24;97980.75;;;9.15;100.00
17072;BME280;7731;50.720;6.912;2023-04-01T03:59:03;97979.47;;;9.20;100.00
17072;BME280;7731;50.720;6.912;2023-04-01T04:01:39;97975.81;;;9.34;100.00
17072;BME280;7731;50.720;6.912;2023-04-01T04:04:14;97983.50;;;9.34;100.00
17072;BME280;7731;50.720;6.912;2023-04-01T04:06:52;97978.38;;;9.34;100.00
17072;BME280;7731;50.720;6.912;2023-04-01T04:09:29;97985.59;;;9.29;100.00
17072;BME280;7731;50.720;6.912;2023-04-01T04:12:06;97982.75;;;9.43;100.00
17072;BME280;7731;50.720;6.912;2023-04-01T04:14:42;97986.06;;;9.34;100.00
17072;BME280;7731;50.720;6.912;2023-04-01T04:17:17;97985.69;;;9.39;100.00
17072;BME280;7731;50.720;6.912;2023-04-01T04:19:52;97983.97;;;9.28;100.00
17072;BME280;7731;50.720;6.912;2023-04-01T04:22:30;97993.16;;;9.30;100.00
17072;BME280;7731;50.720;6.912;2023-04-01T04:25:07;97986.59;;;9.49;100.00
17072;BME280;7731;50.720;6.912;2023-04-01T04:27:43;97984.38;;;9.44;100.00
17072;BME280;7731;50.720;6.912;2023-04-01T04:30:19;97995.28;;;9.25;100.00
17072;BME280;7731;50.720;6.912;2023-04-01T04:32:54;97989.09;;;9.28;100.00
17072;BME280;7731;50.720;6.912;2023-04-01T04:35:29;97998.19;;;9.21;100.00
17072;BME280;7731;50.720;6.912;2023-04-01T04:38:07;97998.19;;;9.21;100.00
17072;BME280;7731;50.720;6.912;2023-04-01T04:40:43;97998.06;;;9.22;100.00
17072;BME280;7731;50.720;6.912;2023-04-01T04:43:20;97996.75;;;9.39;100.00
17072;BME280;7731;50.720;6.912;2023-04-01T04:45:52;97991.41;;;9.31;100.00
17072;BME280;7731;50.720;6.912;2023-04-01T04:48:23;97999.88;;;9.43;100.00
17072;BME280;7731;50.720;6.912;2023-04-01T04:51:01;98003.56;;;9.18;100.00
17072;BME280;7731;50.720;6.912;2023-04-01T04:53:34;97996.75;;;9.39;100.00
17072;BME280;7731;50.720;6.912;2023-04-01T04:56:05;97998.44;;;9.18;100.00
17072;BME280;7731;50.720;6.912;2023-04-01T04:58:36;98006.59;;;9.11;100.00
17072;BME280;7731;50.720;6.912;2023-04-01T05:01:09;98002.16;;;9.14;100.00
17072;BME280;7731;50.720;6.912;2023-04-01T05:03:40;98004.00;;;9.34;100.00
17072;BME280;7731;50.720;6.912;2023-04-01T05:06:14;98007.91;;;9.50;100.00
17072;BME280;7731;50.720;6.912;2023-04-01T05:08:47;98010.25;;;9.41;100.00
17072;BME280;7731;50.720;6.912;2023-04-01T05:11:19;98007.97;;;9.27;100.00
17072;BME280;7731;50.720;6.912;2023-04-01T05:13:49;98017.50;;;9.36;100.00
17072;BME280;7731;50.720;6.912;2023-04-01T05:16:20;98016.75;;;9.45;100.00
17072;BME280;7731;50.720;6.912;2023-04-01T05:18:51;98017.00;;;9.42;100.00
17072;BME280;7731;50.720;6.912;2023-04-01T05:21:21;98019.38;;;9.23;100.00
17072;BME280;7731;50.720;6.912;2023-04-01T05:23:54;98022.41;;;9.28;100.00
17072;BME280;7731;50.720;6.912;2023-04-01T05:26:26;98024.81;;;9.41;100.00
17072;BME280;7731;50.720;6.912;2023-04-01T05:28:57;98024.34;;;9.47;100.00
17072;BME280;7731;50.720;6.912;2023-04-01T05:31:27;98030.38;;;9.46;100.00
17072;BME280;7731;50.720;6.912;2023-04-01T05:33:57;98021.66;;;9.48;100.00
17072;BME280;7731;50.720;6.912;2023-04-01T05:36:27;98028.22;;;9.30;100.00
17072;BME280;7731;50.720;6.912;2023-04-01T05:39:00;98030.09;;;9.28;100.00
17072;BME280;7731;50.720;6.912;2023-04-01T05:41:35;98029.56;;;9.45;100.00
17072;BME280;7731;50.720;6.912;2023-04-01T05:44:05;98032.72;;;9.49;100.00
17072;BME280;7731;50.720;6.912;2023-04-01T05:46:36;98033.53;;;9.50;100.00
17072;BME280;7731;50.720;6.912;2023-04-01T05:49:08;98034.44;;;9.60;100.00
17072;BME280;7731;50.720;6.912;2023-04-01T05:51:39;98031.66;;;9.63;100.00
17072;BME280;7731;50.720;6.912;2023-04-01T05:54:11;98042.19;;;9.26;100.00
17072;BME280;7731;50.720;6.912;2023-04-01T05:56:42;98031.53;;;9.53;100.00
17072;BME280;7731;50.720;6.912;2023-04-01T05:59:14;98041.47;;;9.46;100.00
17072;BME280;7731;50.720;6.912;2023-04-01T06:01:45;98046.69;;;9.56;100.00
17072;BME280;7731;50.720;6.912;2023-04-01T06:04:17;98046.00;;;9.54;100.00
17072;BME280;7731;50.720;6.912;2023-04-01T06:06:48;98048.81;;;9.40;100.00
17072;BME280;7731;50.720;6.912;2023-04-01T06:09:29;98052.31;;;9.39;100.00
17072;BME280;7731;50.720;6.912;2023-04-01T06:12:26;98053.38;;;9.36;100.00
17072;BME280;7731;50.720;6.912;2023-04-01T06:15:15;98046.03;;;9.32;100.00
17072;BME280;7731;50.720;6.912;2023-04-01T06:18:13;98046.66;;;9.13;100.00
17072;BME280;7731;50.720;6.912;2023-04-01T06:21:00;98051.25;;;9.41;100.00
17072;BME280;7731;50.720;6.912;2023-04-01T06:23:55;98060.22;;;9.47;100.00
17072;BME280;7731;50.720;6.912;2023-04-01T06:26:41;98065.47;;;9.57;100.00
17072;BME280;7731;50.720;6.912;2023-04-01T06:29:51;98058.94;;;9.53;100.00
17072;BME280;7731;50.720;6.912;2023-04-01T06:32:56;98073.88;;;9.36;100.00
17072;BME280;7731;50.720;6.912;2023-04-01T06:35:53;98076.41;;;9.47;100.00
17072;BME280;7731;50.720;6.912;2023-04-01T06:39:12;98077.31;;;9.58;100.00
17072;BME280;7731;50.720;6.912;2023-04-01T06:42:26;98076.84;;;9.64;100.00
17072;BME280;7731;50.720;6.912;2023-04-01T06:45:16;98075.72;;;9.57;100.00
17072;BME280;7731;50.720;6.912;2023-04-01T06:48:10;98076.59;;;9.67;100.00
17072;BME280;7731;50.720;6.912;2023-04-01T06:50:54;98086.38;;;9.73;100.00
17072;BME280;7731;50.720;6.912;2023-04-01T06:53:38;98084.19;;;9.57;100.00
17072;BME280;7731;50.720;6.912;2023-04-01T06:56:15;98092.63;;;9.48;100.00
17072;BME280;7731;50.720;6.912;2023-04-01T06:58:53;98083.72;;;9.63;100.00
17072;BME280;7731;50.720;6.912;2023-04-01T07:01:32;98086.59;;;9.70;100.00
17072;BME280;7731;50.720;6.912;2023-04-01T07:04:13;98084.66;;;9.95;100.00
17072;BME280;7731;50.720;6.912;2023-04-01T07:06:50;98088.31;;;10.13;100.00
17072;BME280;7731;50.720;6.912;2023-04-01T07:09:28;98093.13;;;10.39;100.00
17072;BME280;7731;50.720;6.912;2023-04-01T07:12:09;98089.22;;;10.24;100.00
17072;BME280;7731;50.720;6.912;2023-04-01T07:14:44;98089.31;;;10.01;100.00
17072;BME280;7731;50.720;6.912;2023-04-01T07:17:23;98092.81;;;10.21;100.00
17072;BME280;7731;50.720;6.912;2023-04-01T07:20:02;98099.81;;;9.98;100.00
17072;BME280;7731;50.720;6.912;2023-04-01T07:22:40;98094.78;;;9.75;100.00
17072;BME280;7731;50.720;6.912;2023-04-01T07:25:15;98100.78;;;10.18;100.00
17072;BME280;7731;50.720;6.912;2023-04-01T07:27:47;98102.00;;;10.35;100.00
17072;BME280;7731;50.720;6.912;2023-04-01T07:30:41;98105.59;;;10.11;100.00
17072;BME280;7731;50.720;6.912;2023-04-01T07:33:25;98116.03;;;9.87;100.00
17072;BME280;7731;50.720;6.912;2023-04-01T07:36:08;98119.41;;;9.99;100.00
17072;BME280;7731;50.720;6.912;2023-04-01T07:38:57;98120.56;;;9.95;100.00
17072;BME280;7731;50.720;6.912;2023-04-01T07:41:49;98124.06;;;9.50;100.00
17072;BME280;7731;50.720;6.912;2023-04-01T07:44:31;98122.22;;;9.96;100.00
17072;BME280;7731;50.720;6.912;2023-04-01T07:47:40;98130.78;;;9.62;100.00
17072;BME280;7731;50.720;6.912;2023-04-01T07:50:25;98127.25;;;9.86;100.00
17072;BME280;7731;50.720;6.912;2023-04-01T07:53:07;98134.91;;;9.97;100.00
17072;BME280;7731;50.720;6.912;2023-04-01T07:55:50;98130.44;;;9.78;100.00
17072;BME280;7731;50.720;6.912;2023-04-01T07:58:39;98130.44;;;9.78;100.00
17072;BME280;7731;50.720;6.912;2023-04-01T08:01:28;98131.78;;;9.94;100.00
17072;BME280;7731;50.720;6.912;2023-04-01T08:04:25;98129.84;;;10.18;100.00
17072;BME280;7731;50.720;6.912;2023-04-01T08:07:08;98135.09;;;10.49;100.00
17072;BME280;7731;50.720;6.912;2023-04-01T08:09:50;98134.69;;;10.33;100.00
17072;BME280;7731;50.720;6.912;2023-04-01T08:12:37;98144.03;;;10.23;100.00
17072;BME280;7731;50.720;6.912;2023-04-01T08:15:21;98142.38;;;10.33;100.00
17072;BME280;7731;50.720;6.912;2023-04-01T08:18:07;98148.31;;;10.33;100.00
17072;BME280;7731;50.720;6.912;2023-04-01T08:20:48;98155.41;;;10.41;100.00
17072;BME280;7731;50.720;6.912;2023-04-01T08:23:25;98156.97;;;10.21;100.00
17072;BME280;7731;50.720;6.912;2023-04-01T08:26:05;98159.59;;;10.10;100.00
17072;BME280;7731;50.720;6.912;2023-04-01T08:28:44;98169.00;;;10.21;100.00
17072;BME280;7731;50.720;6.912;2023-04-01T08:31:19;98164.91;;;10.29;100.00
17072;BME280;7731;50.720;6.912;2023-04-01T08:33:55;98176.41;;;10.46;100.00
17072;BME280;7731;50.720;6.912;2023-04-01T08:36:34;98174.03;;;10.54;100.00
17072;BME280;7731;50.720;6.912;2023-04-01T08:39:12;98184.19;;;10.56;100.00
17072;BME280;7731;50.720;6.912;2023-04-01T08:42:18;98182.69;;;10.53;100.00
17072;BME280;7731;50.720;6.912;2023-04-01T08:45:35;98179.09;;;10.45;100.00
17072;BME280;7731;50.720;6.912;2023-04-01T08:48:53;98189.78;;;10.17;100.00
17072;BME280;7731;50.720;6.912;2023-04-01T08:52:16;98192.13;;;10.53;100.00
17072;BME280;7731;50.720;6.912;2023-04-01T08:55:31;98184.56;;;10.51;100.00
17072;BME280;7731;50.720;6.912;2023-04-01T08:58:41;98191.63;;;10.27;100.00
17072;BME280;7731;50.720;6.912;2023-04-01T09:02:00;98201.84;;;10.49;100.00
17072;BME280;7731;50.720;6.912;2023-04-01T09:04:52;98200.00;;;10.40;100.00
17072;BME280;7731;50.720;6.912;2023-04-01T09:07:46;98197.75;;;10.47;100.00
17072;BME280;7731;50.720;6.912;2023-04-01T09:11:02;98204.78;;;10.45;100.00
17072;BME280;7731;50.720;6.912;2023-04-01T09:14:05;98204.25;;;10.83;100.00
17072;BME280;7731;50.720;6.912;2023-04-01T09:17:13;98210.94;;;10.75;100.00
17072;BME280;7731;50.720;6.912;2023-04-01T09:20:17;98214.63;;;10.61;100.00
17072;BME280;7731;50.720;6.912;2023-04-01T09:23:32;98211.19;;;10.39;100.00
17072;BME280;7731;50.720;6.912;2023-04-01T09:26:29;98219.44;;;10.54;100.00
17072;BME280;7731;50.720;6.912;2023-04-01T09:29:29;98222.03;;;11.17;100.00
17072;BME280;7731;50.720;6.912;2023-04-01T09:32:32;98226.56;;;11.35;100.00
17072;BME280;7731;50.720;6.912;2023-04-01T09:35:23;98229.34;;;11.43;100.00
17072;BME280;7731;50.720;6.912;2023-04-01T09:38:15;98233.00;;;11.50;100.00
17072;BME280;7731;50.720;6.912;2023-04-01T09:40:57;98246.34;;;11.13;100.00
17072;BME280;7731;50.720;6.912;2023-04-01T09:43:58;98237.44;;;11.17;100.00
17072;BME280;7731;50.720;6.912;2023-04-01T09:46:50;98240.22;;;10.83;100.00
17072;BME280;7731;50.720;6.912;2023-04-01T09:49:55;98244.44;;;10.73;100.00
17072;BME280;7731;50.720;6.912;2023-04-01T09:52:46;98257.81;;;10.88;100.00
17072;BME280;7731;50.720;6.912;2023-04-01T09:56:03;98250.97;;;11.19;100.00
17072;BME280;7731;50.720;6.912;2023-04-01T09:59:12;98259.13;;;10.82;100.00
17072;BME280;7731;50.720;6.912;2023-04-01T10:12:08;98274.47;;;11.57;100.00
17072;BME280;7731;50.720;6.912;2023-04-01T10:15:20;98270.91;;;11.48;100.00
17072;BME280;7731;50.720;6.912;2023-04-01T10:25:14;98281.53;;;11.65;100.00
17072;BME280;7731;50.720;6.912;2023-04-01T10:28:29;98284.97;;;11.75;100.00
17072;BME280;7731;50.720;6.912;2023-04-01T10:31:51;98285.50;;;11.69;100.00
17072;BME280;7731;50.720;6.912;2023-04-01T10:34:56;98300.53;;;11.21;100.00
17072;BME280;7731;50.720;6.912;2023-04-01T10:38:05;98282.28;;;12.07;100.00
17072;BME280;7731;50.720;6.912;2023-04-01T10:41:13;98283.47;;;11.72;100.00
17072;BME280;7731;50.720;6.912;2023-04-01T10:44:31;98288.03;;;11.38;100.00
17072;BME280;7731;50.720;6.912;2023-04-01T10:47:48;98289.56;;;11.50;100.00
17072;BME280;7731;50.720;6.912;2023-04-01T10:50:58;98290.53;;;11.80;100.00
17072;BME280;7731;50.720;6.912;2023-04-01T10:54:00;98292.84;;;11.52;100.00
17072;BME280;7731;50.720;6.912;2023-04-01T10:56:44;98302.00;;;11.45;100.00
17072;BME280;7731;50.720;6.912;2023-04-01T11:00:06;98299.97;;;11.70;100.00
17072;BME280;7731;50.720;6.912;2023-04-01T11:06:54;98305.78;;;11.93;100.00
17072;BME280;7731;50.720;6.912;2023-04-01T11:17:00;98308.41;;;11.72;100.00
17072;BME280;7731;50.720;6.912;2023-04-01T11:20:38;98313.72;;;11.59;100.00
17072;BME280;7731;50.720;6.912;2023-04-01T11:23:54;98315.84;;;11.75;100.00
17072;BME280;7731;50.720;6.912;2023-04-01T11:26:52;98326.72;;;11.88;100.00
17072;BME280;7731;50.720;6.912;2023-04-01T11:29:49;98319.50;;;11.51;100.00
17072;BME280;7731;50.720;6.912;2023-04-01T11:32:43;98323.03;;;12.02;100.00
17072;BME280;7731;50.720;6.912;2023-04-01T11:35:49;98325.94;;;11.67;100.00
17072;BME280;7731;50.720;6.912;2023-04-01T11:38:40;98326.84;;;11.56;100.00
17072;BME280;7731;50.720;6.912;2023-04-01T11:41:27;98334.69;;;11.85;100.00
17072;BME280;7731;50.720;6.912;2023-04-01T11:44:18;98334.97;;;11.82;100.00
17072;BME280;7731;50.720;6.912;2023-04-01T11:47:22;98331.72;;;11.80;100.00
17072;BME280;7731;50.720;6.912;2023-04-01T11:50:21;98348.03;;;11.90;100.00
17072;BME280;7731;50.720;6.912;2023-04-01T11:53:21;98331.16;;;12.48;100.00
17072;BME280;7731;50.720;6.912;2023-04-01T11:56:07;98342.75;;;12.23;100.00
17072;BME280;7731;50.720;6.912;2023-04-01T11:59:02;98350.28;;;12.05;100.00
17072;BME280;7731;50.720;6.912;2023-04-01T12:01:59;98348.72;;;11.92;100.00
17072;BME280;7731;50.720;6.912;2023-04-01T12:08:15;98368.69;;;12.10;100.00
17072;BME280;7731;50.720;6.912;2023-04-01T12:10:59;98359.59;;;12.37;100.00
17072;BME280;7731;50.720;6.912;2023-04-01T12:13:47;98367.75;;;12.51;100.00
17072;BME280;7731;50.720;6.912;2023-04-01T12:16:47;98371.47;;;12.18;100.00
17072;BME280;7731;50.720;6.912;2023-04-01T12:19:35;98379.38;;;12.36;100.00
17072;BME280;7731;50.720;6.912;2023-04-01T12:22:42;98372.81;;;12.22;100.00
17072;BME280;7731;50.720;6.912;2023-04-01T12:25:38;98385.22;;;11.86;100.00
17072;BME280;7731;50.720;6.912;2023-04-01T12:28:25;98389.38;;;11.77;100.00
17072;BME280;7731;50.720;6.912;2023-04-01T12:31:18;98390.94;;;11.90;100.00
17072;BME280;7731;50.720;6.912;2023-04-01T12:34:42;98395.75;;;11.41;100.00
17072;BME280;7731;50.720;6.912;2023-04-01T12:37:29;98397.28;;;11.65;100.00
17072;BME280;7731;50.720;6.912;2023-04-01T12:40:31;98397.91;;;11.36;100.00
17072;BME280;7731;50.720;6.912;2023-04-01T12:43:53;98400.28;;;11.28;100.00
17072;BME280;7731;50.720;6.912;2023-04-01T12:47:00;98403.41;;;10.99;100.00
17072;BME280;7731;50.720;6.912;2023-04-01T12:50:00;98407.38;;;10.92;100.00
17072;BME280;7731;50.720;6.912;2023-04-01T12:53:04;98406.03;;;11.20;100.00
17072;BME280;7731;50.720;6.912;2023-04-01T12:55:46;98399.47;;;11.48;100.00
17072;BME280;7731;50.720;6.912;2023-04-01T12:58:51;98401.03;;;11.39;100.00
17072;BME280;7731;50.720;6.912;2023-04-01T13:02:09;98415.47;;;10.87;100.00
17072;BME280;7731;50.720;6.912;2023-04-01T13:05:15;98419.88;;;11.29;100.00
17072;BME280;7731;50.720;6.912;2023-04-01T13:08:26;98416.38;;;11.30;100.00
17072;BME280;7731;50.720;6.912;2023-04-01T13:11:30;98409.94;;;11.03;100.00
17072;BME280;7731;50.720;6.912;2023-04-01T13:14:26;98423.00;;;11.43;100.00
17072;BME280;7731;50.720;6.912;2023-04-01T13:17:20;98419.09;;;12.03;100.00
17072;BME280;7731;50.720;6.912;2023-04-01T13:20:00;98426.50;;;12.27;100.00
17072;BME280;7731;50.720;6.912;2023-04-01T13:22:51;98417.91;;;12.47;100.00
17072;BME280;7731;50.720;6.912;2023-04-01T13:25:37;98417.75;;;12.90;100.00
17072;BME280;7731;50.720;6.912;2023-04-01T13:28:20;98422.66;;;13.22;100.00
17072;BME280;7731;50.720;6.912;2023-04-01T13:31:01;98428.22;;;13.08;100.00
17072;BME280;7731;50.720;6.912;2023-04-01T13:33:44;98425.41;;;12.60;100.00
17072;BME280;7731;50.720;6.912;2023-04-01T13:36:30;98421.81;;;12.82;100.00
17072;BME280;7731;50.720;6.912;2023-04-01T13:39:27;98436.66;;;12.28;100.00
17072;BME280;7731;50.720;6.912;2023-04-01T13:42:16;98440.44;;;11.82;100.00
17072;BME280;7731;50.720;6.912;2023-04-01T13:44:56;98447.16;;;12.06;100.00
17072;BME280;7731;50.720;6.912;2023-04-01T13:48:15;98446.63;;;12.12;100.00
17072;BME280;7731;50.720;6.912;2023-04-01T13:51:37;98446.88;;;12.09;100.00
17072;BME280;7731;50.720;6.912;2023-04-01T13:55:05;98445.34;;;12.58;100.00
17072;BME280;7731;50.720;6.912;2023-04-01T13:58:22;98449.97;;;12.64;100.00
17072;BME280;7731;50.720;6.912;2023-04-01T14:01:09;98447.47;;;12.53;100.00
17072;BME280;7731;50.720;6.912;2023-04-01T14:07:22;98447.16;;;13.47;100.00
17072;BME280;7731;50.720;6.912;2023-04-01T14:10:19;98463.13;;;13.31;100.00
17072;BME280;7731;50.720;6.912;2023-04-01T14:13:00;98468.81;;;13.25;100.00
17072;BME280;7731;50.720;6.912;2023-04-01T14:16:03;98470.72;;;13.13;100.00
17072;BME280;7731;50.720;6.912;2023-04-01T14:18:56;98466.97;;;12.77;100.00
17072;BME280;7731;50.720;6.912;2023-04-01T14:21:41;98472.19;;;12.35;100.00
17072;BME280;7731;50.720;6.912;2023-04-01T14:24:50;98472.44;;;12.62;100.00
17072;BME280;7731;50.720;6.912;2023-04-01T14:27:42;98477.94;;;12.69;100.00
17072;BME280;7731;50.720;6.912;2023-04-01T14:30:52;98478.06;;;12.67;100.00
17072;BME280;7731;50.720;6.912;2023-04-01T14:33:55;98482.56;;;12.75;100.00
17072;BME280;7731;50.720;6.912;2023-04-01T14:36:53;98482.53;;;12.65;100.00
17072;BME280;7731;50.720;6.912;2023-04-01T14:43:14;98483.47;;;12.33;100.00
17072;BME280;7731;50.720;6.912;2023-04-01T14:49:34;98492.00;;;12.65;100.00
17072;BME280;7731;50.720;6.912;2023-04-01T14:52:15;98494.19;;;12.39;100.00
17072;BME280;7731;50.720;6.912;2023-04-01T14:54:49;98495.66;;;12.10;100.00
17072;BME280;7731;50.720;6.912;2023-04-01T14:57:25;98496.38;;;11.80;100.00
17072;BME280;7731;50.720;6.912;2023-04-01T15:00:09;98508.56;;;11.78;100.00
17072;BME280;7731;50.720;6.912;2023-04-01T15:02:52;98504.97;;;11.69;100.00
17072;BME280;7731;50.720;6.912;2023-04-01T15:05:45;98506.97;;;11.87;100.00
17072;BME280;7731;50.720;6.912;2023-04-01T15:08:23;98509.72;;;12.27;100.00
17072;BME280;7731;50.720;6.912;2023-04-01T15:11:18;98513.75;;;12.20;100.00
17072;BME280;7731;50.720;6.912;2023-04-01T15:14:24;98512.84;;;12.31;100.00
17072;BME280;7731;50.720;6.912;2023-04-01T15:17:16;98522.63;;;12.58;100.00
17072;BME280;7731;50.720;6.912;2023-04-01T15:20:10;98522.78;;;12.36;100.00
17072;BME280;7731;50.720;6.912;2023-04-01T15:23:09;98517.00;;;12.22;100.00
17072;BME280;7731;50.720;6.912;2023-04-01T15:29:11;98549.06;;;11.65;100.00
17072;BME280;7731;50.720;6.912;2023-04-01T15:31:55;98549.25;;;11.29;100.00
17072;BME280;7731;50.720;6.912;2023-04-01T15:34:40;98560.38;;;11.18;100.00
17072;BME280;7731;50.720;6.912;2023-04-01T15:37:20;98557.81;;;11.07;100.00
17072;BME280;7731;50.720;6.912;2023-04-01T15:40:05;98565.16;;;11.23;100.00
17072;BME280;7731;50.720;6.912;2023-04-01T15:42:57;98561.97;;;11.42;100.00
17072;BME280;7731;50.720;6.912;2023-04-01T15:45:46;98566.69;;;11.14;100.00
17072;BME280;7731;50.720;6.912;2023-04-01T15:48:44;98572.88;;;11.12;100.00
17072;BME280;7731;50.720;6.912;2023-04-01T15:51:40;98572.28;;;11.31;100.00
17072;BME280;7731;50.720;6.912;2023-04-01T15:54:31;98579.28;;;11.29;100.00
17072;BME280;7731;50.720;6.912;2023-04-01T15:57:23;98578.25;;;11.20;100.00
17072;BME280;7731;50.720;6.912;2023-04-01T16:00:15;98585.63;;;11.24;100.00
17072;BME280;7731;50.720;6.912;2023-04-01T16:02:52;98583.28;;;10.99;100.00
17072;BME280;7731;50.720;6.912;2023-04-01T16:05:40;98588.06;;;10.92;100.00
17072;BME280;7731;50.720;6.912;2023-04-01T16:08:44;98594.97;;;11.14;100.00
17072;BME280;7731;50.720;6.912;2023-04-01T16:11:28;98592.16;;;11.17;100.00
17072;BME280;7731;50.720;6.912;2023-04-01T16:14:20;98598.31;;;10.81;100.00